sensor_id;sensor_type;location;lat;lon;timestamp;pressure;altitude;pressure_sealevel;temperature;humidity
20825;BME280;10573;50.936;6.978;2023-03-23T00:01:08;100131.66;;;16.00;55.19
20825;BME280;10573;50.936;6.978;2023-03-23T00:03:38;100138.72;;;15.88;55.59
20825;BME280;10573;50.936;6.978;2023-03-23T00:06:05;100153.44;;;15.65;55.75
20825;BME280;10573;50.936;6.978;2023-03-23T00:08:37;100144.25;;;15.36;56.38
20825;BME280;10573;50.936;6.978;2023-03-23T00:11:04;100126.31;;;15.55;56.09
20825;BME280;10573;50.936;6.978;2023-03-23T00:13:30;100120.41;;;15.95;55.46
20825;BME280;10573;50.936;6.978;2023-03-23T00:15:56;100133.59;;;15.63;56.05
20825;BME280;10573;50.936;6.978;2023-03-23T00:18:22;100129.72;;;15.94;55.71
20825;BME280;10573;50.936;6.978;2023-03-23T00:20:56;100124.09;;;15.81;55.57
20825;BME280;10573;50.936;6.978;2023-03-23T00:23:24;100130.03;;;15.69;56.00
20825;BME280;10573;50.936;6.978;2023-03-23T00:25:52;100126.84;;;16.02;55.40
20825;BME280;10573;50.936;6.978;2023-03-23T00:28:25;100122.28;;;15.36;56.46
20825;BME280;10573;50.936;6.978;2023-03-23T00:30:59;100133.78;;;15.47;56.72
20825;BME280;10573;50.936;6.978;2023-03-23T00:33:27;100134.94;;;15.37;56.80
20825;BME280;10573;50.936;6.978;2023-03-23T00:35:54;100136.22;;;15.71;56.06
20825;BME280;10573;50.936;6.978;2023-03-23T00:38:20;100138.06;;;15.86;55.84
20825;BME280;10573;50.936;6.978;2023-03-23T00:40:46;100128.84;;;15.57;56.45
20825;BME280;10573;50.936;6.978;2023-03-23T00:43:14;100117.03;;;15.93;55.97
20825;BME280;10573;50.936;6.978;2023-03-23T00:45:40;100121.47;;;15.79;55.89
20825;BME280;10573;50.936;6.978;2023-03-23T00:48:06;100127.00;;;15.42;56.29
20825;BME280;10573;50.936;6.978;2023-03-23T00:50:31;100115.69;;;15.67;56.29
20825;BME280;10573;50.936;6.978;2023-03-23T00:52:58;100110.19;;;15.67;56.25
20825;BME280;10573;50.936;6.978;2023-03-23T00:55:25;100111.97;;;15.60;56.34
20825;BME280;10573;50.936;6.978;2023-03-23T00:57:50;100093.66;;;15.46;56.64
20825;BME280;10573;50.936;6.978;2023-03-23T01:00:17;100092.84;;;15.67;56.38
20825;BME280;10573;50.936;6.978;2023-03-23T01:02:44;100109.44;;;15.58;56.50
20825;BME280;10573;50.936;6.978;2023-03-23T01:05:10;100104.91;;;15.51;57.27
20825;BME280;10573;50.936;6.978;2023-03-23T01:07:36;100100.63;;;15.63;57.39
20825;BME280;10573;50.936;6.978;2023-03-23T01:10:02;100102.25;;;15.57;57.03
20825;BME280;10573;50.936;6.978;2023-03-23T01:12:27;100097.06;;;15.48;57.13
20825;BME280;10573;50.936;6.978;2023-03-23T01:14:53;100083.63;;;15.53;56.81
20825;BME280;10573;50.936;6.978;2023-03-23T01:17:18;100089.78;;;15.76;56.32
20825;BME280;10573;50.936;6.978;2023-03-23T01:19:46;100092.13;;;15.58;56.51
20825;BME280;10573;50.936;6.978;2023-03-23T01:22:11;100093.44;;;15.62;56.64
20825;BME280;10573;50.936;6.978;2023-03-23T01:24:37;100084.69;;;15.37;57.25
20825;BME280;10573;50.936;6.978;2023-03-23T01:27:02;100085.19;;;15.40;56.68
20825;BME280;10573;50.936;6.978;2023-03-23T01:29:33;100071.91;;;15.66;56.23
20825;BME280;10573;50.936;6.978;2023-03-23T01:31:59;100068.66;;;15.55;56.60
20825;BME280;10573;50.936;6.978;2023-03-23T01:34:24;100082.44;;;15.62;56.14
20825;BME280;10573;50.936;6.978;2023-03-23T01:36:50;100075.16;;;15.91;55.71
20825;BME280;10573;50.936;6.978;2023-03-23T01:39:15;100089.38;;;15.58;56.23
20825;BME280;10573;50.936;6.978;2023-03-23T01:41:40;100083.50;;;15.61;56.05
20825;BME280;10573;50.936;6.978;2023-03-23T01:46:40;100085.34;;;15.97;56.16
20825;BME280;10573;50.936;6.978;2023-03-23T01:49:15;100084.66;;;16.17;56.56
20825;BME280;10573;50.936;6.978;2023-03-23T01:51:49;100070.47;;;15.85;56.71
20825;BME280;10573;50.936;6.978;2023-03-23T01:54:18;100075.50;;;15.81;57.29
20825;BME280;10573;50.936;6.978;2023-03-23T01:56:59;100082.47;;;16.05;57.38
20825;BME280;10573;50.936;6.978;2023-03-23T01:59:29;100083.97;;;15.13;59.28
20825;BME280;10573;50.936;6.978;2023-03-23T02:01:55;100074.03;;;15.27;60.15
20825;BME280;10573;50.936;6.978;2023-03-23T02:04:23;100086.63;;;15.21;59.96
20825;BME280;10573;50.936;6.978;2023-03-23T02:06:51;100080.22;;;14.99;60.59
20825;BME280;10573;50.936;6.978;2023-03-23T02:09:17;100056.63;;;15.20;60.10
20825;BME280;10573;50.936;6.978;2023-03-23T02:11:43;100078.13;;;15.16;60.34
20825;BME280;10573;50.936;6.978;2023-03-23T02:14:09;100078.72;;;14.97;60.38
20825;BME280;10573;50.936;6.978;2023-03-23T02:16:56;100087.72;;;15.05;60.64
20825;BME280;10573;50.936;6.978;2023-03-23T02:30:43;100027.50;;;15.19;60.70
20825;BME280;10573;50.936;6.978;2023-03-23T02:33:43;100007.25;;;15.20;61.19
20825;BME280;10573;50.936;6.978;2023-03-23T02:38:59;99987.00;;;15.21;61.24
20825;BME280;10573;50.936;6.978;2023-03-23T02:41:34;99987.19;;;15.19;61.09
20825;BME280;10573;50.936;6.978;2023-03-23T02:44:03;99983.84;;;15.02;61.36
20825;BME280;10573;50.936;6.978;2023-03-23T02:46:28;100000.59;;;14.92;61.00
20825;BME280;10573;50.936;6.978;2023-03-23T02:48:56;100014.41;;;14.99;60.35
20825;BME280;10573;50.936;6.978;2023-03-23T02:51:24;100016.53;;;15.19;59.93
20825;BME280;10573;50.936;6.978;2023-03-23T02:53:52;100014.41;;;14.99;60.22
20825;BME280;10573;50.936;6.978;2023-03-23T02:56:23;100023.94;;;15.03;59.77
20825;BME280;10573;50.936;6.978;2023-03-23T02:58:50;100016.16;;;15.22;59.41
20825;BME280;10573;50.936;6.978;2023-03-23T03:04:17;100017.91;;;14.93;59.48
20825;BME280;10573;50.936;6.978;2023-03-23T03:07:07;100017.56;;;15.18;59.56
20825;BME280;10573;50.936;6.978;2023-03-23T03:09:58;100012.53;;;15.21;59.12
20825;BME280;10573;50.936;6.978;2023-03-23T03:12:46;100012.31;;;15.01;59.55
20825;BME280;10573;50.936;6.978;2023-03-23T03:15:30;100005.19;;;15.43;58.77
20825;BME280;10573;50.936;6.978;2023-03-23T03:18:05;100010.59;;;15.15;59.20
20825;BME280;10573;50.936;6.978;2023-03-23T03:20:34;100022.84;;;14.83;59.86
20825;BME280;10573;50.936;6.978;2023-03-23T03:23:03;100019.00;;;15.14;59.36
20825;BME280;10573;50.936;6.978;2023-03-23T03:25:29;100017.31;;;15.13;59.20
20825;BME280;10573;50.936;6.978;2023-03-23T03:27:56;100021.09;;;15.33;58.64
20825;BME280;10573;50.936;6.978;2023-03-23T03:30:26;100022.41;;;15.16;59.27
20825;BME280;10573;50.936;6.978;2023-03-23T03:32:54;100015.72;;;15.03;59.55
20825;BME280;10573;50.936;6.978;2023-03-23T03:35:23;100020.53;;;15.01;59.70
20825;BME280;10573;50.936;6.978;2023-03-23T03:37:49;100022.56;;;14.92;59.94
20825;BME280;10573;50.936;6.978;2023-03-23T03:40:17;100024.63;;;14.90;60.07
20825;BME280;10573;50.936;6.978;2023-03-23T03:42:44;100028.56;;;15.18;59.45
20825;BME280;10573;50.936;6.978;2023-03-23T03:45:14;100028.16;;;15.21;59.41
20825;BME280;10573;50.936;6.978;2023-03-23T03:47:40;100032.22;;;15.25;59.17
20825;BME280;10573;50.936;6.978;2023-03-23T03:50:06;100035.66;;;15.12;59.39
20825;BME280;10573;50.936;6.978;2023-03-23T03:52:32;100036.47;;;14.91;59.94
20825;BME280;10573;50.936;6.978;2023-03-23T03:54:58;100035.16;;;14.87;60.20
20825;BME280;10573;50.936;6.978;2023-03-23T03:57:24;100036.16;;;15.01;59.61
20825;BME280;10573;50.936;6.978;2023-03-23T03:59:49;100038.13;;;14.62;60.69
20825;BME280;10573;50.936;6.978;2023-03-23T04:02:16;100023.88;;;14.97;59.91
20825;BME280;10573;50.936;6.978;2023-03-23T04:04:46;100023.94;;;15.03;59.80
20825;BME280;10573;50.936;6.978;2023-03-23T04:07:12;100029.06;;;15.28;59.20
20825;BME280;10573;50.936;6.978;2023-03-23T04:09:39;100029.16;;;14.98;60.36
20825;BME280;10573;50.936;6.978;2023-03-23T04:12:05;100025.78;;;14.81;60.48
20825;BME280;10573;50.936;6.978;2023-03-23T04:14:31;100032.06;;;15.12;59.88
20825;BME280;10573;50.936;6.978;2023-03-23T04:16:56;100026.16;;;15.30;59.38
20825;BME280;10573;50.936;6.978;2023-03-23T04:19:23;100024.41;;;15.43;59.10
20825;BME280;10573;50.936;6.978;2023-03-23T04:21:48;100028.91;;;15.15;60.00
20825;BME280;10573;50.936;6.978;2023-03-23T04:24:15;100027.25;;;15.35;59.36
20825;BME280;10573;50.936;6.978;2023-03-23T04:26:40;100027.59;;;15.25;59.42
20825;BME280;10573;50.936;6.978;2023-03-23T04:29:08;100024.03;;;15.10;59.89
20825;BME280;10573;50.936;6.978;2023-03-23T04:31:34;100037.16;;;15.15;59.61
20825;BME280;10573;50.936;6.978;2023-03-23T04:34:00;100033.06;;;15.25;59.60
20825;BME280;10573;50.936;6.978;2023-03-23T04:36:27;100033.22;;;15.02;59.73
20825;BME280;10573;50.936;6.978;2023-03-23T04:38:54;100035.34;;;15.22;59.74
20825;BME280;10573;50.936;6.978;2023-03-23T04:41:23;100045.97;;;15.10;59.70
20825;BME280;10573;50.936;6.978;2023-03-23T04:43:49;100037.38;;;14.98;60.08
20825;BME280;10573;50.936;6.978;2023-03-23T04:46:18;100043.81;;;15.05;60.18
20825;BME280;10573;50.936;6.978;2023-03-23T04:48:45;100045.56;;;15.13;59.86
20825;BME280;10573;50.936;6.978;2023-03-23T04:51:11;100045.88;;;15.03;60.39
20825;BME280;10573;50.936;6.978;2023-03-23T04:53:39;100047.19;;;15.07;60.36
20825;BME280;10573;50.936;6.978;2023-03-23T04:56:06;100043.25;;;15.32;59.69
20825;BME280;10573;50.936;6.978;2023-03-23T04:58:32;100042.47;;;15.01;60.28
20825;BME280;10573;50.936;6.978;2023-03-23T05:01:02;100037.53;;;15.12;60.48
20825;BME280;10573;50.936;6.978;2023-03-23T05:03:29;100042.56;;;15.08;60.23
20825;BME280;10573;50.936;6.978;2023-03-23T05:05:54;100040.25;;;15.26;60.10
20825;BME280;10573;50.936;6.978;2023-03-23T05:08:21;100045.66;;;15.20;60.48
20825;BME280;10573;50.936;6.978;2023-03-23T05:10:53;100054.41;;;15.08;60.82
20825;BME280;10573;50.936;6.978;2023-03-23T05:13:19;100047.78;;;15.39;60.17
20825;BME280;10573;50.936;6.978;2023-03-23T05:15:45;100063.50;;;15.31;60.33
20825;BME280;10573;50.936;6.978;2023-03-23T05:18:10;100056.75;;;15.12;60.62
20825;BME280;10573;50.936;6.978;2023-03-23T05:20:36;100051.97;;;15.35;60.23
20825;BME280;10573;50.936;6.978;2023-03-23T05:23:04;100062.19;;;15.26;60.32
20825;BME280;10573;50.936;6.978;2023-03-23T05:25:30;100053.00;;;15.34;59.96
20825;BME280;10573;50.936;6.978;2023-03-23T05:27:58;100053.09;;;15.04;60.77
20825;BME280;10573;50.936;6.978;2023-03-23T05:30:24;100061.34;;;14.89;60.84
20825;BME280;10573;50.936;6.978;2023-03-23T05:32:49;100059.28;;;15.13;60.46
20825;BME280;10573;50.936;6.978;2023-03-23T05:35:18;100069.72;;;14.88;61.52
20825;BME280;10573;50.936;6.978;2023-03-23T05:37:44;100064.91;;;15.05;60.68
20825;BME280;10573;50.936;6.978;2023-03-23T05:40:10;100059.81;;;15.38;59.99
20825;BME280;10573;50.936;6.978;2023-03-23T05:42:37;100080.50;;;15.04;60.22
20825;BME280;10573;50.936;6.978;2023-03-23T05:45:04;100065.47;;;15.00;60.32
20825;BME280;10573;50.936;6.978;2023-03-23T05:47:30;100073.44;;;14.95;60.96
20825;BME280;10573;50.936;6.978;2023-03-23T05:49:56;100072.94;;;14.91;60.55
20825;BME280;10573;50.936;6.978;2023-03-23T05:52:21;100073.72;;;15.00;60.19
20825;BME280;10573;50.936;6.978;2023-03-23T05:54:49;100070.03;;;14.78;60.43
20825;BME280;10573;50.936;6.978;2023-03-23T05:57:14;100066.44;;;14.92;60.17
20825;BME280;10573;50.936;6.978;2023-03-23T05:59:40;100058.63;;;15.26;59.27
20825;BME280;10573;50.936;6.978;2023-03-23T06:02:05;100067.84;;;15.03;59.40
20825;BME280;10573;50.936;6.978;2023-03-23T06:04:31;100074.72;;;15.14;59.15
20825;BME280;10573;50.936;6.978;2023-03-23T06:07:01;100084.06;;;15.20;59.12
20825;BME280;10573;50.936;6.978;2023-03-23T06:09:27;100078.41;;;15.06;58.97
20825;BME280;10573;50.936;6.978;2023-03-23T06:11:53;100076.63;;;15.14;58.84
20825;BME280;10573;50.936;6.978;2023-03-23T06:14:18;100087.88;;;15.19;57.99
20825;BME280;10573;50.936;6.978;2023-03-23T06:16:44;100088.72;;;15.19;57.91
20825;BME280;10573;50.936;6.978;2023-03-23T06:19:09;100080.53;;;15.41;57.25
20825;BME280;10573;50.936;6.978;2023-03-23T06:21:36;100091.34;;;15.64;56.51
20825;BME280;10573;50.936;6.978;2023-03-23T06:24:02;100082.94;;;15.51;56.78
20825;BME280;10573;50.936;6.978;2023-03-23T06:26:32;100093.03;;;15.65;56.44
20825;BME280;10573;50.936;6.978;2023-03-23T06:28:59;100102.38;;;15.71;56.13
20825;BME280;10573;50.936;6.978;2023-03-23T06:31:26;100098.59;;;15.72;55.78
20825;BME280;10573;50.936;6.978;2023-03-23T06:33:52;100084.16;;;15.63;55.79
20825;BME280;10573;50.936;6.978;2023-03-23T06:36:18;100086.16;;;15.54;55.86
20825;BME280;10573;50.936;6.978;2023-03-23T06:38:44;100089.66;;;15.63;55.33
20825;BME280;10573;50.936;6.978;2023-03-23T06:41:10;100089.59;;;15.78;55.32
20825;BME280;10573;50.936;6.978;2023-03-23T06:43:36;100093.25;;;16.07;54.65
20825;BME280;10573;50.936;6.978;2023-03-23T06:46:05;100105.84;;;15.94;54.18
20825;BME280;10573;50.936;6.978;2023-03-23T06:48:31;100105.09;;;15.86;54.40
20825;BME280;10573;50.936;6.978;2023-03-23T06:50:57;100096.31;;;16.19;54.02
20825;BME280;10573;50.936;6.978;2023-03-23T06:53:23;100107.19;;;16.05;53.73
20825;BME280;10573;50.936;6.978;2023-03-23T06:55:48;100104.44;;;16.27;53.42
20825;BME280;10573;50.936;6.978;2023-03-23T06:58:14;100114.78;;;16.03;53.34
20825;BME280;10573;50.936;6.978;2023-03-23T07:00:39;100118.19;;;16.05;53.78
20825;BME280;10573;50.936;6.978;2023-03-23T07:03:06;100112.28;;;16.08;53.09
20825;BME280;10573;50.936;6.978;2023-03-23T07:05:32;100113.53;;;15.84;53.42
20825;BME280;10573;50.936;6.978;2023-03-23T07:07:58;100124.28;;;15.64;54.05
20825;BME280;10573;50.936;6.978;2023-03-23T07:10:23;100112.44;;;16.00;53.99
20825;BME280;10573;50.936;6.978;2023-03-23T07:12:49;100116.84;;;15.58;53.96
20825;BME280;10573;50.936;6.978;2023-03-23T07:15:15;100110.06;;;15.75;53.81
20825;BME280;10573;50.936;6.978;2023-03-23T07:17:41;100110.94;;;15.61;53.96
20825;BME280;10573;50.936;6.978;2023-03-23T07:20:07;100115.03;;;15.87;53.74
20825;BME280;10573;50.936;6.978;2023-03-23T07:22:33;100114.66;;;15.90;53.52
20825;BME280;10573;50.936;6.978;2023-03-23T07:24:58;100124.94;;;15.66;53.97
20825;BME280;10573;50.936;6.978;2023-03-23T07:27:24;100116.34;;;16.13;53.01
20825;BME280;10573;50.936;6.978;2023-03-23T07:29:50;100117.75;;;16.30;52.49
20825;BME280;10573;50.936;6.978;2023-03-23T07:32:15;100111.66;;;16.06;52.65
20825;BME280;10573;50.936;6.978;2023-03-23T07:34:42;100102.38;;;16.07;52.63
20825;BME280;10573;50.936;6.978;2023-03-23T07:37:08;100104.44;;;16.05;52.50
20825;BME280;10573;50.936;6.978;2023-03-23T07:39:34;100104.38;;;16.20;52.07
20825;BME280;10573;50.936;6.978;2023-03-23T07:42:00;100098.19;;;16.40;51.95
20825;BME280;10573;50.936;6.978;2023-03-23T07:44:25;100105.75;;;16.09;51.84
20825;BME280;10573;50.936;6.978;2023-03-23T07:46:51;100105.03;;;16.22;51.57
20825;BME280;10573;50.936;6.978;2023-03-23T07:49:17;100112.78;;;15.90;52.08
20825;BME280;10573;50.936;6.978;2023-03-23T07:51:43;100108.88;;;16.28;51.79
20825;BME280;10573;50.936;6.978;2023-03-23T07:54:09;100106.09;;;16.50;51.13
20825;BME280;10573;50.936;6.978;2023-03-23T07:56:35;100110.91;;;16.19;51.40
20825;BME280;10573;50.936;6.978;2023-03-23T07:59:03;100103.59;;;16.55;50.85
20825;BME280;10573;50.936;6.978;2023-03-23T08:01:30;100114.22;;;16.36;50.67
20825;BME280;10573;50.936;6.978;2023-03-23T08:03:55;100102.56;;;16.34;51.21
20825;BME280;10573;50.936;6.978;2023-03-23T08:06:24;100114.28;;;15.93;51.87
20825;BME280;10573;50.936;6.978;2023-03-23T08:08:49;100110.72;;;15.99;51.30
20825;BME280;10573;50.936;6.978;2023-03-23T08:11:16;100107.47;;;16.10;51.58
20825;BME280;10573;50.936;6.978;2023-03-23T08:13:42;100107.94;;;16.42;50.92
20825;BME280;10573;50.936;6.978;2023-03-23T08:16:08;100107.16;;;16.55;50.16
20825;BME280;10573;50.936;6.978;2023-03-23T08:18:35;100103.91;;;16.38;50.63
20825;BME280;10573;50.936;6.978;2023-03-23T08:21:03;100109.16;;;16.12;50.89
20825;BME280;10573;50.936;6.978;2023-03-23T08:23:35;100107.63;;;16.31;50.55
20825;BME280;10573;50.936;6.978;2023-03-23T08:26:03;100106.28;;;16.20;50.83
20825;BME280;10573;50.936;6.978;2023-03-23T08:28:30;100115.69;;;16.32;50.76
20825;BME280;10573;50.936;6.978;2023-03-23T08:30:55;100106.97;;;16.57;50.46
20825;BME280;10573;50.936;6.978;2023-03-23T08:33:20;100108.25;;;16.61;49.83
20825;BME280;10573;50.936;6.978;2023-03-23T08:35:57;100115.00;;;16.52;50.02
20825;BME280;10573;50.936;6.978;2023-03-23T08:38:23;100116.72;;;16.59;49.61
20825;BME280;10573;50.936;6.978;2023-03-23T08:40:49;100118.38;;;16.54;49.88
20825;BME280;10573;50.936;6.978;2023-03-23T08:43:16;100126.44;;;16.55;49.94
20825;BME280;10573;50.936;6.978;2023-03-23T08:45:41;100113.34;;;16.57;49.56
20825;BME280;10573;50.936;6.978;2023-03-23T08:48:07;100112.75;;;16.97;49.19
20825;BME280;10573;50.936;6.978;2023-03-23T08:50:33;100110.72;;;16.77;49.67
20825;BME280;10573;50.936;6.978;2023-03-23T08:52:58;100122.22;;;16.59;49.46
20825;BME280;10573;50.936;6.978;2023-03-23T08:55:24;100121.88;;;16.69;49.40
20825;BME280;10573;50.936;6.978;2023-03-23T08:57:51;100120.53;;;16.87;48.75
20825;BME280;10573;50.936;6.978;2023-03-23T09:00:19;100126.13;;;16.43;49.46
20825;BME280;10573;50.936;6.978;2023-03-23T09:02:51;100141.47;;;16.31;50.04
20825;BME280;10573;50.936;6.978;2023-03-23T09:05:19;100138.84;;;16.80;49.21
20825;BME280;10573;50.936;6.978;2023-03-23T09:07:48;100149.44;;;17.04;48.86
20825;BME280;10573;50.936;6.978;2023-03-23T09:10:15;100145.19;;;17.02;48.15
20825;BME280;10573;50.936;6.978;2023-03-23T09:12:41;100154.78;;;17.13;48.30
20825;BME280;10573;50.936;6.978;2023-03-23T09:15:09;100156.28;;;16.87;48.64
20825;BME280;10573;50.936;6.978;2023-03-23T09:17:40;100149.81;;;17.01;48.58
20825;BME280;10573;50.936;6.978;2023-03-23T09:20:08;100141.28;;;17.24;47.94
20825;BME280;10573;50.936;6.978;2023-03-23T09:22:41;100151.06;;;16.99;48.38
20825;BME280;10573;50.936;6.978;2023-03-23T09:25:08;100146.34;;;17.21;48.20
20825;BME280;10573;50.936;6.978;2023-03-23T09:27:35;100127.47;;;17.73;47.19
20825;BME280;10573;50.936;6.978;2023-03-23T09:30:07;100129.56;;;17.64;46.74
20825;BME280;10573;50.936;6.978;2023-03-23T09:32:34;100132.81;;;17.88;45.95
20825;BME280;10573;50.936;6.978;2023-03-23T09:35:01;100147.69;;;17.38;46.66
20825;BME280;10573;50.936;6.978;2023-03-23T09:37:26;100137.19;;;17.62;46.85
20825;BME280;10573;50.936;6.978;2023-03-23T09:39:53;100144.25;;;17.23;46.91
20825;BME280;10573;50.936;6.978;2023-03-23T09:45:20;100151.28;;;17.39;46.43
20825;BME280;10573;50.936;6.978;2023-03-23T09:48:04;100152.53;;;17.36;45.54
20825;BME280;10573;50.936;6.978;2023-03-23T09:50:35;100156.53;;;17.27;45.64
20825;BME280;10573;50.936;6.978;2023-03-23T09:53:10;100162.69;;;16.94;46.31
20825;BME280;10573;50.936;6.978;2023-03-23T09:55:39;100155.75;;;17.40;45.58
20825;BME280;10573;50.936;6.978;2023-03-23T09:58:43;100145.50;;;17.20;44.92
20825;BME280;10573;50.936;6.978;2023-03-23T10:01:07;100143.47;;;17.42;44.83
20825;BME280;10573;50.936;6.978;2023-03-23T10:03:39;100157.47;;;17.06;45.31
20825;BME280;10573;50.936;6.978;2023-03-23T10:06:09;100155.28;;;17.36;44.94
20825;BME280;10573;50.936;6.978;2023-03-23T10:08:49;100154.06;;;17.45;44.97
20825;BME280;10573;50.936;6.978;2023-03-23T10:11:31;100157.00;;;17.92;44.33
20825;BME280;10573;50.936;6.978;2023-03-23T10:16:29;100147.69;;;17.38;46.23
20825;BME280;10573;50.936;6.978;2023-03-23T10:19:04;100149.38;;;17.94;45.58
20825;BME280;10573;50.936;6.978;2023-03-23T10:21:35;100162.22;;;17.81;45.88
20825;BME280;10573;50.936;6.978;2023-03-23T10:24:04;100165.31;;;17.09;47.52
20825;BME280;10573;50.936;6.978;2023-03-23T10:29:26;100172.13;;;17.13;48.15
20825;BME280;10573;50.936;6.978;2023-03-23T10:32:08;100167.00;;;17.03;48.96
20825;BME280;10573;50.936;6.978;2023-03-23T10:34:41;100169.50;;;16.98;49.26
20825;BME280;10573;50.936;6.978;2023-03-23T10:37:36;100167.97;;;17.31;48.93
20825;BME280;10573;50.936;6.978;2023-03-23T10:40:00;100167.50;;;17.14;49.68
20825;BME280;10573;50.936;6.978;2023-03-23T10:42:31;100163.00;;;16.77;50.90
20825;BME280;10573;50.936;6.978;2023-03-23T10:45:00;100163.75;;;16.93;50.88
20825;BME280;10573;50.936;6.978;2023-03-23T10:47:26;100174.94;;;16.63;52.10
20825;BME280;10573;50.936;6.978;2023-03-23T10:49:59;100171.78;;;17.23;51.10
20825;BME280;10573;50.936;6.978;2023-03-23T10:52:34;100180.59;;;17.11;50.93
20825;BME280;10573;50.936;6.978;2023-03-23T10:55:05;100182.56;;;16.89;52.07
20825;BME280;10573;50.936;6.978;2023-03-23T10:57:33;100182.25;;;16.77;52.36
20825;BME280;10573;50.936;6.978;2023-03-23T11:00:16;100174.78;;;16.71;52.81
20825;BME280;10573;50.936;6.978;2023-03-23T11:02:47;100174.28;;;17.18;51.54
20825;BME280;10573;50.936;6.978;2023-03-23T11:05:26;100175.41;;;17.30;51.48
20825;BME280;10573;50.936;6.978;2023-03-23T11:07:55;100181.53;;;17.32;51.05
20825;BME280;10573;50.936;6.978;2023-03-23T11:10:26;100184.53;;;17.37;51.13
20825;BME280;10573;50.936;6.978;2023-03-23T11:12:56;100176.91;;;17.88;49.95
20825;BME280;10573;50.936;6.978;2023-03-23T11:15:27;100164.72;;;18.24;49.20
20825;BME280;10573;50.936;6.978;2023-03-23T11:18:02;100170.50;;;17.67;50.22
20825;BME280;10573;50.936;6.978;2023-03-23T11:20:29;100162.84;;;17.69;49.77
20825;BME280;10573;50.936;6.978;2023-03-23T11:22:58;100169.22;;;17.28;50.35
20825;BME280;10573;50.936;6.978;2023-03-23T11:25:24;100170.97;;;17.36;50.11
20825;BME280;10573;50.936;6.978;2023-03-23T11:27:51;100163.00;;;17.54;50.14
20825;BME280;10573;50.936;6.978;2023-03-23T11:30:22;100158.19;;;17.70;49.87
20825;BME280;10573;50.936;6.978;2023-03-23T11:32:49;100156.72;;;17.67;49.82
20825;BME280;10573;50.936;6.978;2023-03-23T11:35:26;100151.28;;;17.39;50.48
20825;BME280;10573;50.936;6.978;2023-03-23T11:37:54;100149.72;;;17.16;50.68
20825;BME280;10573;50.936;6.978;2023-03-23T11:40:24;100144.81;;;17.60;50.05
20825;BME280;10573;50.936;6.978;2023-03-23T11:43:08;100143.75;;;17.13;51.01
20825;BME280;10573;50.936;6.978;2023-03-23T11:45:39;100154.34;;;17.16;51.04
20825;BME280;10573;50.936;6.978;2023-03-23T11:53:53;100154.47;;;16.72;52.05
20825;BME280;10573;50.936;6.978;2023-03-23T11:56:25;100150.38;;;16.33;53.50
20825;BME280;10573;50.936;6.978;2023-03-23T11:58:54;100157.88;;;16.74;52.54
20825;BME280;10573;50.936;6.978;2023-03-23T12:01:45;100161.84;;;16.65;53.20
20825;BME280;10573;50.936;6.978;2023-03-23T12:07:14;100169.97;;;17.43;51.02
20825;BME280;10573;50.936;6.978;2023-03-23T12:10:00;100172.78;;;17.64;50.56
20825;BME280;10573;50.936;6.978;2023-03-23T12:15:07;100166.56;;;17.48;50.36
20825;BME280;10573;50.936;6.978;2023-03-23T12:20:52;100166.59;;;17.55;50.22
20825;BME280;10573;50.936;6.978;2023-03-23T12:26:41;100168.16;;;17.77;50.15
20825;BME280;10573;50.936;6.978;2023-03-23T12:32:23;100155.16;;;18.87;47.75
20825;BME280;10573;50.936;6.978;2023-03-23T12:34:54;100150.47;;;18.81;47.88
20825;BME280;10573;50.936;6.978;2023-03-23T12:37:54;100156.00;;;18.20;48.55
20825;BME280;10573;50.936;6.978;2023-03-23T12:43:54;100155.59;;;17.55;49.14
20825;BME280;10573;50.936;6.978;2023-03-23T12:49:34;100155.72;;;17.33;49.25
20825;BME280;10573;50.936;6.978;2023-03-23T12:52:01;100156.53;;;17.27;49.39
20825;BME280;10573;50.936;6.978;2023-03-23T12:54:33;100163.00;;;17.54;49.16
20825;BME280;10573;50.936;6.978;2023-03-23T12:59:42;100154.25;;;17.99;48.15
20825;BME280;10573;50.936;6.978;2023-03-23T13:04:42;100174.56;;;17.85;48.20
20825;BME280;10573;50.936;6.978;2023-03-23T13:07:16;100179.31;;;18.18;47.37
20825;BME280;10573;50.936;6.978;2023-03-23T13:12:14;100163.09;;;17.81;48.10
20825;BME280;10573;50.936;6.978;2023-03-23T13:15:10;100158.34;;;17.55;48.86
20825;BME280;10573;50.936;6.978;2023-03-23T13:20:39;100163.44;;;18.33;47.27
20825;BME280;10573;50.936;6.978;2023-03-23T13:23:22;100143.88;;;18.01;48.07
20825;BME280;10573;50.936;6.978;2023-03-23T13:25:56;100151.97;;;18.09;47.98
20825;BME280;10573;50.936;6.978;2023-03-23T13:28:28;100148.69;;;17.86;48.64
20825;BME280;10573;50.936;6.978;2023-03-23T13:30:55;100142.28;;;17.65;49.19
20825;BME280;10573;50.936;6.978;2023-03-23T13:33:22;100147.69;;;18.00;48.65
20825;BME280;10573;50.936;6.978;2023-03-23T13:35:48;100147.94;;;18.12;48.33
20825;BME280;10573;50.936;6.978;2023-03-23T13:38:28;100161.47;;;17.38;49.58
20825;BME280;10573;50.936;6.978;2023-03-23T13:40:54;100174.91;;;17.20;50.17
20825;BME280;10573;50.936;6.978;2023-03-23T13:43:30;100169.41;;;17.20;50.29
20825;BME280;10573;50.936;6.978;2023-03-23T13:46:08;100176.88;;;17.26;50.26
20825;BME280;10573;50.936;6.978;2023-03-23T13:48:43;100182.94;;;17.15;50.57
20825;BME280;10573;50.936;6.978;2023-03-23T13:51:26;100174.66;;;17.56;49.76
20825;BME280;10573;50.936;6.978;2023-03-23T13:54:06;100172.13;;;18.77;47.05
20825;BME280;10573;50.936;6.978;2023-03-23T13:56:41;100155.34;;;19.64;44.61
20825;BME280;10573;50.936;6.978;2023-03-23T13:59:27;100178.31;;;18.99;46.00
20825;BME280;10573;50.936;6.978;2023-03-23T14:01:54;100188.69;;;18.70;46.77
20825;BME280;10573;50.936;6.978;2023-03-23T14:04:22;100179.56;;;18.63;46.87
20825;BME280;10573;50.936;6.978;2023-03-23T14:06:49;100180.19;;;18.65;46.96